AirNav   Everest Fuels
 
 457 users online  

Y89 Kalkaska City Airport
Kalkaska, Michigan, USA

GOING TO KALKASKA?


FAA INFORMATION EFFECTIVE 31 DECEMBER 2020

Location

FAA Identifier: Y89
Lat/Long: 44-43-30.6600N 085-12-11.2500W
44-43.511000N 085-12.187500W
44.7251833,-85.2031250
(estimated)
Elevation: 1030 ft. / 313.9 m (surveyed)
Variation: 05W (1985)
From city: 1 mile SW of KALKASKA, MI
Time zone: UTC -5 (UTC -4 during Daylight Saving Time)
Zip code: 49646

Airport Operations

Airport use: Open to the public
Activation date: 09/1960
Control tower: no
ARTCC: MINNEAPOLIS CENTER
FSS: LANSING FLIGHT SERVICE STATION
NOTAMs facility: LAN (NOTAM-D service available)
Attendance: UNATNDD
Wind indicator: lighted
Segmented circle: yes
Lights: ACTVT PAPI RWY 10 & 28; MIRL RWY 10/28 - CTAF.

Airport Communications

CTAF: 122.9
WX AWOS-3 at ACB (16 nm N): 119.275 (231-533-8941)
WX ASOS at TVC (16 nm W): 119.175 (231-486-2920)

Nearby radio navigation aids

VOR radial/distance  VOR name  Freq  Var
TVCr079/15.2TRAVERSE CITY VOR/DME114.6002W
CGGr283/(20.4)GRAYLING VOR109.8006W
GLRr237/27.3GAYLORD VOR/DME109.2006W

 
NDB name  Hdg/Dist  Freq  Var  ID
GWENN098/9.636505WTV - ...-
GRAYLING271/16.035906WGYG --. -.-- --.

Airport Services

Parking: tiedowns

Runway Information

Runway 10/28

Dimensions: 3500 x 75 ft. / 1067 x 23 m
Surface: asphalt, in good condition
Runway edge lights: medium intensity
Runway edge markings: FADED.
RUNWAY 10  RUNWAY 28
Latitude: 44-43.570833N44-43.451267N
Longitude: 085-12.582667W085-11.792260W
Traffic pattern: leftleft
Markings: basic, in poor conditionbasic, in poor condition
Visual slope indicator: 2-light PAPI on left (3.00 degrees glide path)2-light PAPI on left (4.00 degrees glide path)
Obstructions: 36 ft. trees, 623 ft. from runway, 188 ft. left of centerline, 11:1 slope to clear
APCH RATIO 20:1 BASED ON STRAIGHT OUT.
32 ft. trees, 420 ft. from runway, 135 ft. left of centerline, 6:1 slope to clear
APCH RATIO 20:1 BASED ON STRAIGHT OUT.

Airport Ownership and Management from official FAA records

Ownership: Publicly-owned
Owner: VILLAGE OF KALKASKA
200 HYDE ST
KALKASKA, MI 49646-8253
Phone 231-258-9191
Manager: SCOTT YOST, VILLAGE MGR
200 HYDE ST
KALKASKA, MI 49646-8253
Phone 231-258-9191
AFT HRS FLD CONDS CTC CNTRL DISPATCH 231-258-3350.

Airport Operational Statistics

Aircraft based on the field: 5
Single engine airplanes: 5
    
Aircraft operations: avg 51/week *
50% transient general aviation
50% local general aviation
* for 12-month period ending 31 December 2019

Additional Remarks

ADMIN BLDG & PHONE 300 FT WEST OF ACFT PKG AREA, IN TRANSIT AUTHORTY OFFICE. ACCESS PRESS 5, THEN 3-2 SIMULTANEOUS, THEN 1.
DEER & BIRDS ON & INVOF ARPT.
FOR CD CTC MINNEAPOLIS ARTCC AT 651-463-5588.

Instrument Procedures

There are no published instrument procedures at Y89.

Some nearby airports with instrument procedures:

KACB - Antrim County Airport (16 nm N)
KTVC - Cherry Capital Airport (16 nm W)
KGOV - Grayling Army Airfield (20 nm E)
KGLR - Gaylord Regional Airport (27 nm NE)
KCAD - Wexford County Airport (29 nm S)
 
Loc | Ops | Rwys | IFR | FBO | Links
Com | Nav | Svcs | Stats | Notes
Area around Y89 (Kalkaska City Airport)
 
Road maps at: MapQuest Bing Google
 
Aerial photo
WARNING: Photo may not be current or correct
Aerial photo of Y89 (Kalkaska City Airport)
Photo taken 01-Oct-2006

Do you have a better or more recent aerial photo of Kalkaska City Airport that you would like to share? If so, please send us your photo.

 
Sectional chart

 
Airport distance calculator
Flying to Kalkaska City Airport? Find the distance to fly.

From to Y89

Sunrise and sunset
Times for 17-Jan-2021
 Local
(UTC-5)
 Zulu
(UTC)
Morning civil twilight07:4212:42
Sunrise08:1513:15
Sunset17:2722:27
Evening civil twilight18:0023:00

Current date and time
Zulu (UTC)  17-Jan-2021 09:12:33
Local (UTC-5)  17-Jan-2021 04:12:33
 
METAR
KACB 
15nm N 
170855Z AUTO 00000KT 10SM SCT012 OVC040 00/M02 A2960 RMK AO2 T10011020
KTVC 
16nm W 
170853Z AUTO 30010KT 9SM FEW009 SCT015 OVC033 01/M01 A2960 RMK AO2 SNE10B16E42 SLP028 P0000 60000 T00061011 51006
KGOV 
20nm E 
170858Z AUTO 32005KT 10SM BKN010 BKN020 OVC026 M01/M02 A2956 RMK AO2 SLP028 P0000 60000 T10131020 52009 $
KGLR 
28nm NE 
170853Z AUTO VRB04KT 10SM BKN012 BKN019 OVC055 M01/M04 A2955 RMK AO2 SNB29E39 SLP020 P0000 60000 T10061039 51005
KCAD 
29nm S 
170855Z AUTO 31004KT 10SM -SN SCT008 BKN013 OVC020 M01/M02 A2957 RMK AO2 T10091020
TAF
KTVC 
16nm W 
170533Z 1706/1806 33006KT P6SM VCSH SCT015 OVC025 TEMPO 1706/1710 5SM -SHSN OVC012 FM171000 33005KT P6SM VCSH OVC015 TEMPO 1710/1714 5SM -SHSN FM171400 34007KT P6SM VCSH OVC015 FM180000 35004KT P6SM VCSH OVC025
NOTAMs
Click for the latest NOTAMs
NOTAMs are issued by the DoD/FAA and will open in a separate window not controlled by AirNav.

 

 
 

Would you like to see your business listed on this page?

 If your business provides an interesting product or service to pilots, flight crews, aircraft, or users of the Kalkaska City Airport, you should consider listing it here.  To start the listing process, click on the button below
 
Add a business
 

Other Pages about Kalkaska City Airport

Page from the Michigan Airport Directory (PDF)
 
Update a link
 
Copyright © AirNav, LLC. All rights reserved. Privacy Policy  Contact